Time;durP1;ratioP1;P1;durP2;ratioP2;P2;SDS_P1;SDS_P2;PMS_P1;PMS_P2;Temp;Humidity;BMP_temperature;BMP_pressure;BME280_temperature;BME280_humidity;BME280_pressure;Samples;Min_cycle;Max_cycle;Signal;HPM_P1;HPM_P2
2021/12/06 00:01:41;;;;;;;6.50;5.90;;;5.80;99.90;;;;;;4972918;28;20456;-71
2021/12/06 00:04:12;;;;;;;6.27;5.20;;;5.90;99.90;;;;;;4973875;28;20416;-71
2021/12/06 00:06:42;;;;;;;5.70;5.30;;;6.00;99.90;;;;;;4973252;28;20432;-70
2021/12/06 00:09:16;;;;;;;5.57;5.07;;;5.90;99.90;;;;;;4992265;28;20447;-71
2021/12/06 00:11:42;;;;;;;5.43;4.93;;;6.00;99.90;;;;;;4992327;28;20788;-71
2021/12/06 00:14:09;;;;;;;4.83;4.33;;;6.00;99.90;;;;;;4993843;28;20430;-71
2021/12/06 00:16:35;;;;;;;5.70;5.20;;;5.90;99.90;;;;;;4994201;28;20917;-71
2021/12/06 00:19:01;;;;;;;5.90;5.30;;;5.90;99.90;;;;;;4995566;28;20419;-70
2021/12/06 00:21:27;;;;;;;6.07;5.47;;;5.90;99.90;;;;;;4978674;28;20485;-71
2021/12/06 00:23:53;;;;;;;6.10;5.50;;;6.00;99.90;;;;;;4996046;28;20204;-71
2021/12/06 00:26:19;;;;;;;5.73;5.20;;;6.00;99.90;;;;;;4977434;28;20455;-72
2021/12/06 00:28:46;;;;;;;5.67;5.17;;;6.10;99.90;;;;;;4976769;28;20608;-71
2021/12/06 00:31:13;;;;;;;6.50;5.90;;;6.00;99.90;;;;;;4959814;28;20902;-71
2021/12/06 00:33:39;;;;;;;8.50;6.37;;;6.00;99.90;;;;;;4976641;28;20450;-72
2021/12/06 00:36:07;;;;;;;6.40;5.80;;;6.00;99.90;;;;;;4976696;28;20490;-71
2021/12/06 00:38:35;;;;;;;8.20;5.87;;;5.90;99.90;;;;;;4958959;28;20424;-71
2021/12/06 00:41:03;;;;;;;7.20;6.50;;;5.60;99.90;;;;;;4985209;28;20439;-72
2021/12/06 00:43:28;;;;;;;6.23;5.67;;;5.60;99.90;;;;;;4995755;28;20423;-71
2021/12/06 00:45:54;;;;;;;6.43;5.37;;;5.70;99.90;;;;;;4995134;28;20442;-71
2021/12/06 00:48:20;;;;;;;5.83;5.23;;;5.70;99.90;;;;;;4994163;28;20176;-70
2021/12/06 00:50:45;;;;;;;6.10;5.50;;;5.80;99.90;;;;;;4994182;28;20321;-70
2021/12/06 00:53:11;;;;;;;6.53;5.83;;;5.80;99.90;;;;;;4995553;28;20582;-70
2021/12/06 00:55:38;;;;;;;7.23;6.53;;;5.70;99.90;;;;;;4995258;28;20198;-71
2021/12/06 00:58:04;;;;;;;7.60;6.80;;;5.50;99.90;;;;;;4995652;28;20427;-71
2021/12/06 01:00:37;;;;;;;6.83;6.13;;;5.40;99.90;;;;;;4996484;28;20417;-71
2021/12/06 01:03:16;;;;;;;7.40;6.27;;;5.30;99.90;;;;;;4994731;28;20767;-71
2021/12/06 01:05:42;;;;;;;6.20;5.50;;;5.20;99.90;;;;;;4991968;28;20442;-71
2021/12/06 01:08:08;;;;;;;6.30;4.90;;;5.10;99.90;;;;;;4995779;28;20415;-71
2021/12/06 01:10:34;;;;;;;6.10;5.60;;;5.10;99.90;;;;;;4993445;28;20478;-71
2021/12/06 01:13:01;;;;;;;6.00;5.40;;;5.00;99.90;;;;;;4995297;28;20202;-70
2021/12/06 01:15:27;;;;;;;5.70;5.23;;;4.90;99.90;;;;;;4994950;28;20430;-71
2021/12/06 01:17:53;;;;;;;6.63;5.17;;;4.90;99.90;;;;;;4991769;28;20796;-70
2021/12/06 01:20:23;;;;;;;6.07;5.43;;;4.90;99.90;;;;;;4994473;28;20183;-70
2021/12/06 01:22:55;;;;;;;6.07;5.47;;;4.80;99.90;;;;;;4975764;28;20420;-70
2021/12/06 01:25:32;;;;;;;7.67;6.27;;;4.70;99.90;;;;;;4957714;28;20523;-70
2021/12/06 01:41:28;;;;;;;9.10;7.30;;;4.40;99.90;;;;;;4994858;28;20460;-71
2021/12/06 01:44:21;;;;;;;6.90;6.20;;;4.40;99.90;;;;;;4976359;28;20428;-71
2021/12/06 01:46:52;;;;;;;7.00;6.30;;;4.40;99.90;;;;;;4974076;28;20460;-71
2021/12/06 01:49:24;;;;;;;9.73;5.90;;;4.40;99.90;;;;;;4975167;28;20481;-70
2021/12/06 01:51:51;;;;;;;6.97;5.87;;;4.30;99.90;;;;;;4974624;28;20446;-70
2021/12/06 01:54:18;;;;;;;6.50;5.63;;;4.30;99.90;;;;;;4977000;28;20509;-71
2021/12/06 01:56:44;;;;;;;7.37;5.93;;;4.20;99.90;;;;;;4975045;28;20474;-71
2021/12/06 01:59:11;;;;;;;6.80;5.40;;;4.10;99.90;;;;;;4974676;28;20401;-71
2021/12/06 02:01:37;;;;;;;6.87;6.17;;;4.10;99.90;;;;;;4975459;28;20483;-71
2021/12/06 02:04:03;;;;;;;6.60;5.03;;;4.10;99.90;;;;;;4977274;28;20435;-71
2021/12/06 02:06:29;;;;;;;5.87;5.23;;;4.00;99.90;;;;;;4975708;28;20234;-71
2021/12/06 02:08:55;;;;;;;6.93;4.70;;;4.10;99.90;;;;;;4975175;28;20436;-71
2021/12/06 02:11:24;;;;;;;5.40;4.73;;;4.20;99.90;;;;;;4975502;28;20232;-70
2021/12/06 02:17:01;;;;;;;5.07;4.67;;;4.30;99.90;;;;;;4937439;29;21004;-71
2021/12/06 02:19:32;;;;;;;5.10;4.60;;;4.30;99.90;;;;;;4945848;29;20490;-71
2021/12/06 02:21:59;;;;;;;5.90;5.30;;;4.40;99.90;;;;;;4952644;29;20822;-71
2021/12/06 02:24:25;;;;;;;5.90;5.40;;;4.50;99.90;;;;;;4948294;29;20465;-70
2021/12/06 02:26:53;;;;;;;6.47;5.20;;;4.40;99.90;;;;;;4952320;29;20499;-70
2021/12/06 02:29:19;;;;;;;6.00;5.40;;;4.40;99.90;;;;;;4952702;29;20441;-71
2021/12/06 02:31:44;;;;;;;9.70;5.70;;;4.30;99.90;;;;;;4952625;29;20987;-71
2021/12/06 02:34:10;;;;;;;6.40;5.20;;;4.30;99.90;;;;;;4952383;29;20266;-70
2021/12/06 02:36:36;;;;;;;6.07;4.97;;;4.20;99.90;;;;;;4949513;28;20677;-70
2021/12/06 02:39:04;;;;;;;5.27;4.87;;;4.00;99.90;;;;;;4952077;29;20185;-71
2021/12/06 02:41:29;;;;;;;5.40;4.90;;;4.00;99.90;;;;;;4939507;29;20355;-70
2021/12/06 02:43:56;;;;;;;5.90;4.87;;;4.00;99.90;;;;;;4917189;29;20531;-71
2021/12/06 02:46:22;;;;;;;5.83;5.30;;;4.10;99.90;;;;;;4932006;29;20209;-71
2021/12/06 02:48:48;;;;;;;5.70;4.57;;;4.10;99.90;;;;;;4932829;29;20414;-70
2021/12/06 02:51:15;;;;;;;6.77;4.97;;;4.20;99.90;;;;;;4933813;29;20466;-71
2021/12/06 02:53:41;;;;;;;6.00;5.40;;;4.30;99.90;;;;;;4956426;28;20419;-71
2021/12/06 02:56:19;;;;;;;5.53;5.03;;;4.40;99.90;;;;;;4973230;28;20987;-70
2021/12/06 02:58:56;;;;;;;9.43;5.60;;;4.40;99.90;;;;;;4973660;28;20403;-70
2021/12/06 03:01:41;;;;;;;8.33;5.80;;;4.40;99.90;;;;;;4975025;28;20862;-70
2021/12/06 03:04:08;;;;;;;5.30;4.80;;;4.40;99.90;;;;;;4976700;28;20941;-70
2021/12/06 03:06:34;;;;;;;5.60;5.10;;;4.40;99.90;;;;;;4992588;28;20952;-71
2021/12/06 03:09:25;;;;;;;5.20;4.80;;;4.20;99.90;;;;;;4992425;28;20413;-70
2021/12/06 03:12:01;;;;;;;7.10;5.27;;;4.10;99.90;;;;;;4969403;28;20477;-70
2021/12/06 03:14:31;;;;;;;6.07;5.47;;;4.00;99.90;;;;;;4973748;28;20406;-70
2021/12/06 03:16:59;;;;;;;7.73;6.40;;;4.00;99.90;;;;;;4989477;28;20448;-70
2021/12/06 03:19:25;;;;;;;6.90;6.20;;;4.00;99.90;;;;;;5000946;28;20473;-70
2021/12/06 03:21:51;;;;;;;7.73;5.57;;;4.10;99.90;;;;;;4992007;28;20948;-70
2021/12/06 03:24:17;;;;;;;7.70;5.07;;;4.10;99.90;;;;;;4991652;28;20434;-70
2021/12/06 03:26:44;;;;;;;5.73;5.23;;;4.10;99.90;;;;;;4992338;28;20440;-70
2021/12/06 03:29:10;;;;;;;5.90;5.27;;;3.90;99.90;;;;;;4992681;28;20479;-70
2021/12/06 03:31:36;;;;;;;7.97;6.33;;;4.00;99.90;;;;;;4992708;28;20454;-70
2021/12/06 03:34:03;;;;;;;6.17;5.57;;;3.90;99.90;;;;;;4990790;28;20997;-70
2021/12/06 03:36:31;;;;;;;7.57;4.67;;;3.90;99.90;;;;;;4992334;28;21008;-71
2021/12/06 03:38:58;;;;;;;6.00;4.80;;;3.80;99.90;;;;;;4992747;28;20454;-70
2021/12/06 03:41:26;;;;;;;6.30;5.40;;;3.70;99.90;;;;;;4992565;28;20413;-70
2021/12/06 03:43:54;;;;;;;6.20;4.97;;;3.60;99.90;;;;;;4990866;28;20420;-70
2021/12/06 03:46:21;;;;;;;5.67;4.73;;;3.50;99.90;;;;;;4991974;28;20482;-70
2021/12/06 03:48:47;;;;;;;5.97;4.53;;;3.50;99.90;;;;;;4991206;28;20441;-70
2021/12/06 03:51:13;;;;;;;7.10;4.73;;;3.60;99.90;;;;;;4992206;28;20456;-70
2021/12/06 03:53:48;;;;;;;5.83;5.20;;;3.50;99.90;;;;;;4992396;28;20919;-73
2021/12/06 03:56:14;;;;;;;5.70;5.13;;;3.50;99.90;;;;;;4972978;28;20435;-70
2021/12/06 03:58:40;;;;;;;7.83;5.77;;;3.60;99.90;;;;;;4992465;28;20955;-71
2021/12/06 04:01:06;;;;;;;6.10;5.50;;;3.70;99.90;;;;;;4992681;28;20187;-70
2021/12/06 04:03:34;;;;;;;6.60;5.90;;;3.70;99.90;;;;;;4992780;28;20512;-70
2021/12/06 04:06:00;;;;;;;9.90;7.67;;;3.60;99.90;;;;;;4990931;28;20193;-70
2021/12/06 04:08:26;;;;;;;9.57;7.40;;;3.50;99.90;;;;;;4992470;28;20528;-70
2021/12/06 04:10:52;;;;;;;12.93;7.80;;;3.50;99.90;;;;;;4992257;28;20270;-70
2021/12/06 04:13:17;;;;;;;10.13;6.47;;;3.50;99.90;;;;;;4992438;28;20171;-70
2021/12/06 04:15:45;;;;;;;7.03;5.70;;;3.60;99.90;;;;;;4989379;28;20201;-70
2021/12/06 04:18:11;;;;;;;7.83;5.10;;;3.60;99.90;;;;;;4992895;28;20697;-70
2021/12/06 04:20:37;;;;;;;6.50;4.87;;;3.60;99.90;;;;;;4992726;28;20492;-70
2021/12/06 04:23:06;;;;;;;5.87;5.10;;;3.60;99.90;;;;;;4992187;28;20632;-71
2021/12/06 04:25:34;;;;;;;4.97;4.47;;;3.40;99.90;;;;;;4974381;28;20543;-70
2021/12/06 04:28:05;;;;;;;4.33;4.03;;;3.30;99.90;;;;;;4990731;28;20425;-70
2021/12/06 04:30:31;;;;;;;5.03;4.53;;;3.20;99.90;;;;;;4992280;28;20398;-70
2021/12/06 04:32:57;;;;;;;4.80;4.00;;;3.20;99.90;;;;;;4992091;28;20870;-70
2021/12/06 04:35:24;;;;;;;5.37;4.87;;;3.30;99.90;;;;;;4991830;28;20495;-70
2021/12/06 04:37:50;;;;;;;5.80;4.70;;;3.20;99.90;;;;;;4990423;28;20491;-71
2021/12/06 04:40:15;;;;;;;5.67;5.00;;;3.20;99.90;;;;;;4988999;28;20509;-70
2021/12/06 04:42:41;;;;;;;6.20;5.10;;;3.30;99.90;;;;;;4972219;28;20410;-70
2021/12/06 04:45:08;;;;;;;7.07;5.43;;;3.40;99.90;;;;;;4972674;28;20613;-70
2021/12/06 04:47:34;;;;;;;6.40;5.80;;;3.40;99.90;;;;;;4990619;28;20417;-70
2021/12/06 04:49:59;;;;;;;6.50;5.90;;;3.40;99.90;;;;;;4991343;28;20962;-70
2021/12/06 04:52:26;;;;;;;6.40;5.80;;;3.40;99.90;;;;;;4977956;28;20201;-70
2021/12/06 04:54:57;;;;;;;7.43;5.60;;;3.40;99.90;;;;;;4991689;28;20177;-70
2021/12/06 04:57:30;;;;;;;6.00;5.40;;;3.40;99.90;;;;;;4990763;28;21012;-71
2021/12/06 05:00:03;;;;;;;8.07;6.30;;;3.30;99.90;;;;;;4993743;28;20432;-70
2021/12/06 05:02:33;;;;;;;7.23;5.90;;;3.20;99.90;;;;;;4994347;28;20927;-70
2021/12/06 05:05:13;;;;;;;8.63;6.87;;;3.10;99.90;;;;;;4994243;28;20475;-70
2021/12/06 05:07:50;;;;;;;5.70;5.07;;;3.10;99.90;;;;;;4993958;28;20422;-70
2021/12/06 05:10:17;;;;;;;6.13;5.53;;;3.10;99.90;;;;;;4995660;28;20419;-70
2021/12/06 05:12:44;;;;;;;5.93;5.33;;;3.10;99.90;;;;;;4974882;28;20499;-70
2021/12/06 05:15:10;;;;;;;7.03;5.80;;;3.00;99.90;;;;;;4994819;28;20809;-70
2021/12/06 05:17:36;;;;;;;6.63;5.83;;;3.00;99.90;;;;;;4994215;28;20920;-70
2021/12/06 05:20:04;;;;;;;5.47;4.90;;;2.90;99.90;;;;;;4995169;28;20495;-70
2021/12/06 05:22:30;;;;;;;6.63;5.90;;;3.00;99.90;;;;;;4971982;28;20176;-70
2021/12/06 05:24:55;;;;;;;6.40;5.73;;;3.00;99.90;;;;;;4993086;28;20451;-70
2021/12/06 05:27:27;;;;;;;7.87;6.30;;;3.10;99.90;;;;;;4994715;28;20187;-70
2021/12/06 05:29:57;;;;;;;8.80;6.70;;;3.10;99.90;;;;;;4995067;28;20423;-70
2021/12/06 05:32:25;;;;;;;8.13;7.30;;;3.10;99.90;;;;;;4994608;28;20810;-70
2021/12/06 05:34:57;;;;;;;9.90;7.63;;;3.00;99.90;;;;;;4979863;28;20420;-70
2021/12/06 05:37:23;;;;;;;10.57;8.60;;;3.00;99.90;;;;;;4975174;28;20409;-71
2021/12/06 05:39:49;;;;;;;6.80;6.10;;;3.00;99.90;;;;;;5010299;23;20491;-70
2021/12/06 05:42:15;;;;;;;7.70;6.57;;;3.00;99.90;;;;;;5003205;28;20461;-69
2021/12/06 05:44:41;;;;;;;9.23;7.70;;;3.00;99.90;;;;;;4995772;28;20181;-70
2021/12/06 05:47:08;;;;;;;7.70;6.73;;;3.00;99.90;;;;;;4993654;28;20986;-70
2021/12/06 05:49:34;;;;;;;6.90;6.07;;;3.10;99.90;;;;;;4994240;28;20491;-69
2021/12/06 05:51:59;;;;;;;5.70;5.20;;;3.10;99.90;;;;;;4994248;28;20457;-70
2021/12/06 05:54:25;;;;;;;6.47;5.87;;;3.10;99.90;;;;;;4995634;28;20426;-70
2021/12/06 05:56:51;;;;;;;6.30;5.80;;;3.20;99.90;;;;;;4993947;28;20166;-69
2021/12/06 05:59:18;;;;;;;10.30;6.53;;;3.20;99.90;;;;;;4994367;28;20203;-69
2021/12/06 06:01:45;;;;;;;9.10;7.53;;;3.20;99.90;;;;;;4993909;28;20416;-71
2021/12/06 06:04:11;;;;;;;8.70;7.80;;;3.00;99.90;;;;;;5002324;28;20470;-68
2021/12/06 06:06:37;;;;;;;9.90;8.03;;;2.90;99.90;;;;;;5022126;28;20458;-70
2021/12/06 06:09:04;;;;;;;7.77;6.90;;;2.80;99.90;;;;;;5018930;28;20215;-70
2021/12/06 06:11:30;;;;;;;10.27;8.23;;;2.80;99.90;;;;;;5018126;28;20548;-70
2021/12/06 06:13:56;;;;;;;9.57;7.93;;;2.80;99.90;;;;;;5019919;28;20467;-70
2021/12/06 06:16:25;;;;;;;9.40;7.77;;;2.70;99.90;;;;;;5013525;28;20277;-70
2021/12/06 06:18:51;;;;;;;9.23;8.43;;;2.70;99.90;;;;;;5018976;28;20215;-70
2021/12/06 06:21:18;;;;;;;8.33;7.47;;;2.70;99.90;;;;;;5012834;28;20537;-70
2021/12/06 06:23:43;;;;;;;7.40;6.30;;;2.80;99.90;;;;;;5013456;28;20454;-70
2021/12/06 06:26:09;;;;;;;8.03;6.43;;;2.90;99.90;;;;;;4996860;28;20876;-71
2021/12/06 06:28:34;;;;;;;7.80;7.00;;;2.90;99.90;;;;;;4992617;28;20761;-68
2021/12/06 06:31:00;;;;;;;7.90;7.00;;;3.00;99.90;;;;;;4992644;28;20203;-70
2021/12/06 06:33:26;;;;;;;9.87;7.60;;;3.00;99.90;;;;;;4992082;28;20196;-70
2021/12/06 06:35:52;;;;;;;10.77;7.87;;;2.90;99.90;;;;;;4993470;28;20197;-70
2021/12/06 06:38:17;;;;;;;9.60;8.00;;;3.00;99.90;;;;;;4992288;28;20206;-70
2021/12/06 06:40:44;;;;;;;11.30;8.60;;;2.90;99.90;;;;;;4999040;28;20475;-69
2021/12/06 06:43:10;;;;;;;9.40;7.57;;;2.70;99.90;;;;;;5032168;28;20218;-69
2021/12/06 06:45:36;;;;;;;11.30;7.47;;;2.70;99.90;;;;;;5031363;28;20559;-67
2021/12/06 06:48:02;;;;;;;12.73;8.57;;;2.70;99.90;;;;;;5026265;28;20446;-69
2021/12/06 06:50:28;;;;;;;9.33;7.37;;;2.70;99.90;;;;;;5010122;28;20821;-69
2021/12/06 06:52:54;;;;;;;8.57;7.30;;;2.80;99.90;;;;;;5011042;28;20462;-70
2021/12/06 06:55:20;;;;;;;11.70;7.70;;;2.80;99.90;;;;;;5011452;28;20220;-69
2021/12/06 06:57:47;;;;;;;10.17;9.07;;;2.90;99.90;;;;;;5011081;28;20524;-70
2021/12/06 07:00:22;;;;;;;9.83;8.13;;;2.90;99.90;;;;;;5009404;28;20474;-68
2021/12/06 07:02:48;;;;;;;9.23;8.10;;;2.90;99.90;;;;;;5002735;28;20426;-68
2021/12/06 07:05:14;;;;;;;9.87;7.70;;;2.80;99.90;;;;;;4992741;28;20416;-70
2021/12/06 07:07:41;;;;;;;10.93;8.10;;;2.70;99.90;;;;;;4992617;28;20412;-71
2021/12/06 07:10:07;;;;;;;12.30;8.83;;;2.60;99.90;;;;;;4993902;28;20443;-69
2021/12/06 07:12:40;;;;;;;10.20;7.40;;;2.70;99.90;;;;;;4992576;28;20609;-69
2021/12/06 07:15:06;;;;;;;8.50;6.60;;;2.70;99.90;;;;;;4997385;28;20795;-70
2021/12/06 07:17:32;;;;;;;8.47;6.63;;;2.80;99.90;;;;;;5031454;28;20407;-71
2021/12/06 07:19:59;;;;;;;7.40;6.67;;;2.80;99.90;;;;;;5031924;28;20437;-70
2021/12/06 07:22:25;;;;;;;8.23;7.10;;;2.90;99.90;;;;;;5009839;28;20175;-69
2021/12/06 07:24:50;;;;;;;12.50;7.80;;;2.90;99.90;;;;;;5011914;28;20418;-71
2021/12/06 07:27:17;;;;;;;9.53;7.80;;;3.00;99.90;;;;;;5011697;28;20282;-70
2021/12/06 07:29:44;;;;;;;9.17;8.00;;;3.00;99.90;;;;;;5010474;28;20258;-72
2021/12/06 07:32:09;;;;;;;10.20;7.40;;;3.00;99.90;;;;;;5010026;28;20457;-70
2021/12/06 07:34:36;;;;;;;7.93;7.13;;;3.00;99.90;;;;;;5011728;28;20426;-70
2021/12/06 07:37:04;;;;;;;10.23;9.10;;;3.00;99.90;;;;;;5011494;28;20660;-70
2021/12/06 07:39:29;;;;;;;10.67;9.13;;;2.80;99.90;;;;;;5010002;28;20536;-70
2021/12/06 07:41:56;;;;;;;16.83;9.67;;;2.70;99.90;;;;;;5011797;28;20450;-70
2021/12/06 07:44:22;;;;;;;16.57;11.80;;;2.60;99.90;;;;;;5010539;28;20253;-69
2021/12/06 07:46:51;;;;;;;14.73;11.77;;;2.60;99.90;;;;;;5011036;28;20763;-70
2021/12/06 07:49:18;;;;;;;15.53;12.23;;;2.50;99.90;;;;;;5011368;28;20517;-70
2021/12/06 07:51:44;;;;;;;13.40;11.20;;;2.40;99.90;;;;;;5010088;28;20459;-69
2021/12/06 07:54:10;;;;;;;11.83;10.50;;;2.30;99.90;;;;;;5010080;28;20514;-69
2021/12/06 07:56:36;;;;;;;14.37;10.20;;;2.30;99.90;;;;;;5011349;28;20504;-70
2021/12/06 07:59:02;;;;;;;13.67;10.50;;;2.20;99.90;;;;;;5010001;28;20195;-70
2021/12/06 08:01:28;;;;;;;10.17;9.17;;;2.20;99.90;;;;;;5009902;28;20426;-70
2021/12/06 08:03:54;;;;;;;11.80;9.90;;;2.20;99.90;;;;;;5011517;28;20423;-71
2021/12/06 08:06:19;;;;;;;11.93;9.53;;;2.20;99.90;;;;;;5011379;28;20569;-70
2021/12/06 08:08:46;;;;;;;9.90;8.60;;;2.40;99.90;;;;;;5011617;28;20407;-71
2021/12/06 08:11:14;;;;;;;11.87;9.23;;;2.40;99.90;;;;;;5008610;28;20196;-71
2021/12/06 08:13:43;;;;;;;10.27;9.07;;;2.50;99.90;;;;;;5026542;28;20971;-71
2021/12/06 08:16:14;;;;;;;8.67;7.80;;;2.60;99.90;;;;;;5021532;28;20449;-70
2021/12/06 08:18:40;;;;;;;10.33;9.00;;;2.70;99.90;;;;;;5030830;28;20915;-70
2021/12/06 08:21:07;;;;;;;10.47;8.57;;;2.80;99.90;;;;;;5031574;28;20506;-70
2021/12/06 08:23:33;;;;;;;12.50;9.00;;;2.90;99.90;;;;;;5012757;28;20427;-69
2021/12/06 08:25:59;;;;;;;10.57;9.57;;;2.90;99.90;;;;;;5010844;28;20414;-70
2021/12/06 08:28:25;;;;;;;9.53;7.83;;;3.00;99.90;;;;;;5011599;28;20262;-70
2021/12/06 08:30:52;;;;;;;9.83;8.63;;;3.00;99.90;;;;;;5011309;28;20453;-71
2021/12/06 08:33:19;;;;;;;9.40;8.50;;;3.10;99.90;;;;;;5010353;28;20797;-70
2021/12/06 08:35:48;;;;;;;9.63;8.50;;;3.00;99.90;;;;;;5016087;28;20508;-70
2021/12/06 08:38:16;;;;;;;10.00;9.00;;;3.10;99.90;;;;;;5015519;28;20407;-69
2021/12/06 08:40:44;;;;;;;10.03;7.87;;;3.10;99.90;;;;;;5012396;28;20499;-69
2021/12/06 08:43:16;;;;;;;11.37;8.53;;;3.10;99.90;;;;;;5015377;28;20920;-70
2021/12/06 08:45:44;;;;;;;10.50;8.30;;;3.10;99.90;;;;;;5015512;28;20386;-70
2021/12/06 08:48:11;;;;;;;11.60;9.17;;;3.10;99.90;;;;;;5015447;28;20415;-71
2021/12/06 08:50:36;;;;;;;10.33;8.30;;;3.20;99.90;;;;;;5012098;28;20474;-71
2021/12/06 08:53:02;;;;;;;9.03;8.20;;;3.30;99.90;;;;;;5015190;28;20490;-70
2021/12/06 08:55:28;;;;;;;11.10;8.57;;;3.30;99.90;;;;;;5015065;28;20175;-68
2021/12/06 08:57:55;;;;;;;10.33;8.97;;;3.30;99.90;;;;;;5015073;28;20177;-70
2021/12/06 09:00:25;;;;;;;12.40;8.70;;;3.40;99.90;;;;;;5015326;28;20807;-71
2021/12/06 09:02:51;;;;;;;9.80;8.80;;;3.40;99.90;;;;;;5011543;28;20435;-71
2021/12/06 09:05:17;;;;;;;10.93;8.60;;;3.40;99.90;;;;;;5014169;28;20498;-71
2021/12/06 09:07:42;;;;;;;11.07;9.90;;;3.30;99.90;;;;;;5014934;28;20502;-70
2021/12/06 09:10:10;;;;;;;10.20;8.53;;;3.40;99.90;;;;;;5014934;28;20198;-71
2021/12/06 09:12:36;;;;;;;10.70;9.60;;;3.40;99.90;;;;;;5013324;28;20200;-71
2021/12/06 09:15:09;;;;;;;10.07;8.90;;;3.50;99.90;;;;;;5016872;28;20510;-70
2021/12/06 09:17:34;;;;;;;10.50;8.73;;;3.50;99.90;;;;;;5034410;28;20399;-69
2021/12/06 09:20:01;;;;;;;10.77;8.37;;;3.50;99.90;;;;;;5034032;28;20530;-70
2021/12/06 09:22:26;;;;;;;12.43;9.30;;;3.60;99.90;;;;;;5032282;28;20243;-71
2021/12/06 09:24:52;;;;;;;9.77;8.30;;;3.60;99.90;;;;;;4994977;28;20977;-70
2021/12/06 09:27:18;;;;;;;12.93;8.60;;;3.60;99.90;;;;;;4994866;28;20274;-70
2021/12/06 09:29:44;;;;;;;11.37;7.83;;;3.60;99.90;;;;;;4994927;28;20571;-71
2021/12/06 09:32:12;;;;;;;11.07;9.77;;;3.60;99.90;;;;;;4994453;28;20259;-70
2021/12/06 09:34:41;;;;;;;11.60;9.13;;;3.60;99.90;;;;;;4995675;28;20792;-70
2021/12/06 09:37:07;;;;;;;9.30;8.27;;;3.70;99.90;;;;;;4992983;28;20434;-70
2021/12/06 09:39:33;;;;;;;11.83;10.30;;;3.80;99.90;;;;;;4994506;28;20502;-70
2021/12/06 09:41:59;;;;;;;10.63;9.53;;;3.80;99.90;;;;;;4994500;28;20880;-70
2021/12/06 09:44:25;;;;;;;13.30;9.60;;;3.90;99.90;;;;;;4994905;28;20651;-71
2021/12/06 09:46:51;;;;;;;15.23;10.17;;;3.90;99.90;;;;;;4994173;28;20424;-70
2021/12/06 09:49:19;;;;;;;12.63;10.47;;;4.00;99.90;;;;;;4994192;28;20957;-70
2021/12/06 09:51:51;;;;;;;12.83;11.40;;;4.00;99.90;;;;;;4994065;28;20211;-70
2021/12/06 09:54:19;;;;;;;11.10;8.60;;;4.10;99.90;;;;;;4994448;28;20409;-69
2021/12/06 09:56:45;;;;;;;14.27;10.00;;;4.20;99.90;;;;;;4993978;28;20994;-70
2021/12/06 09:59:15;;;;;;;11.00;9.90;;;4.20;99.90;;;;;;4992745;28;20462;-69
2021/12/06 10:01:45;;;;;;;11.57;9.67;;;4.30;99.90;;;;;;4993877;28;20928;-70
2021/12/06 10:04:14;;;;;;;13.90;9.20;;;4.40;99.90;;;;;;4994039;28;20906;-70
2021/12/06 10:06:41;;;;;;;11.33;9.87;;;4.40;99.90;;;;;;4994877;28;20438;-70
2021/12/06 10:09:10;;;;;;;12.77;10.37;;;4.50;99.90;;;;;;4993821;28;20437;-69
2021/12/06 10:11:37;;;;;;;12.20;10.70;;;4.60;99.90;;;;;;4994026;28;20458;-69
2021/12/06 10:14:04;;;;;;;11.60;9.60;;;4.70;99.90;;;;;;4993777;28;20403;-70
2021/12/06 10:16:30;;;;;;;13.73;10.17;;;4.80;99.90;;;;;;5006445;28;20438;-69
2021/12/06 10:18:56;;;;;;;11.10;9.93;;;4.90;99.90;;;;;;4993705;28;20421;-70
2021/12/06 10:21:24;;;;;;;11.70;10.20;;;5.00;99.90;;;;;;4992216;28;20525;-70
2021/12/06 10:23:51;;;;;;;12.67;10.73;;;5.00;99.90;;;;;;4993843;28;20416;-70
2021/12/06 10:26:20;;;;;;;18.67;11.70;;;5.10;99.90;;;;;;4992757;28;21023;-70
2021/12/06 10:28:46;;;;;;;14.37;11.10;;;5.10;99.90;;;;;;4993675;28;20434;-70
2021/12/06 10:31:14;;;;;;;11.30;10.10;;;5.20;99.90;;;;;;4991961;28;20968;-70
2021/12/06 10:33:44;;;;;;;14.03;11.10;;;5.30;99.90;;;;;;4993251;28;20244;-70
2021/12/06 10:36:13;;;;;;;13.47;11.20;;;5.30;99.90;;;;;;4993726;28;20505;-70
2021/12/06 10:38:47;;;;;;;13.67;9.87;;;5.40;99.90;;;;;;4993098;28;20889;-70
2021/12/06 10:41:18;;;;;;;14.57;10.70;;;5.50;99.90;;;;;;5002518;28;20445;-71
2021/12/06 10:43:57;;;;;;;13.53;11.00;;;5.60;99.90;;;;;;5012470;28;20418;-70
2021/12/06 10:46:23;;;;;;;14.30;10.83;;;5.70;99.90;;;;;;5010603;28;20488;-70
2021/12/06 10:48:54;;;;;;;16.60;10.03;;;5.70;99.90;;;;;;5012994;28;20902;-70
2021/12/06 10:51:20;;;;;;;11.97;10.00;;;5.70;99.90;;;;;;5011055;28;20488;-70
2021/12/06 10:53:56;;;;;;;11.50;9.87;;;5.80;99.90;;;;;;5012380;28;20414;-70
2021/12/06 10:56:25;;;;;;;14.70;10.30;;;5.80;99.90;;;;;;5011261;28;20438;-69
2021/12/06 10:58:54;;;;;;;14.83;10.80;;;5.90;99.90;;;;;;5012490;28;20410;-70
2021/12/06 11:01:31;;;;;;;13.93;10.67;;;5.90;99.90;;;;;;5026129;28;20994;-70
2021/12/06 11:03:59;;;;;;;14.20;11.53;;;5.90;99.90;;;;;;5012651;28;20958;-70
2021/12/06 11:06:30;;;;;;;12.43;10.13;;;6.00;99.90;;;;;;5012067;28;20426;-69
2021/12/06 11:08:59;;;;;;;12.30;10.33;;;6.10;99.90;;;;;;5012775;28;20414;-70
2021/12/06 11:11:41;;;;;;;12.50;10.63;;;6.20;99.90;;;;;;5010607;28;20461;-70
2021/12/06 11:14:10;;;;;;;13.00;11.00;;;6.30;99.90;;;;;;5010662;28;20457;-70
2021/12/06 11:16:42;;;;;;;14.60;10.67;;;6.30;99.90;;;;;;5026077;28;21197;-70
2021/12/06 11:19:11;;;;;;;15.27;12.20;;;6.40;99.90;;;;;;5032355;28;20479;-70
2021/12/06 11:21:46;;;;;;;14.27;10.87;;;6.50;99.90;;;;;;5031702;28;20823;-70
2021/12/06 11:24:39;;;;;;;11.60;10.37;;;6.50;99.90;;;;;;5001735;28;20454;-70
2021/12/06 11:27:21;;;;;;;12.40;10.37;;;6.60;99.90;;;;;;4992219;28;20884;-69
2021/12/06 11:29:49;;;;;;;11.90;10.70;;;6.60;99.90;;;;;;4992444;28;20446;-70
2021/12/06 11:32:15;;;;;;;13.40;10.37;;;6.50;99.90;;;;;;4991866;28;20490;-69
2021/12/06 11:34:51;;;;;;;11.57;9.80;;;6.60;99.90;;;;;;4993556;28;20429;-70
2021/12/06 11:37:17;;;;;;;14.33;9.43;;;6.60;99.90;;;;;;4991900;28;20226;-68
2021/12/06 11:39:46;;;;;;;13.47;10.90;;;6.70;99.90;;;;;;4991076;28;20459;-70
2021/12/06 11:42:12;;;;;;;16.60;11.63;;;6.60;99.90;;;;;;4993347;28;20268;-69
2021/12/06 11:44:42;;;;;;;14.70;10.80;;;6.50;99.90;;;;;;4993131;28;20564;-69
2021/12/06 11:47:14;;;;;;;17.73;10.77;;;6.50;99.90;;;;;;4992250;28;20188;-70
2021/12/06 11:49:52;;;;;;;14.60;10.83;;;6.50;99.90;;;;;;4990632;28;20893;-70
2021/12/06 11:52:21;;;;;;;14.47;11.50;;;6.40;99.90;;;;;;4992511;28;20449;-70
2021/12/06 11:54:52;;;;;;;16.87;12.47;;;6.50;99.90;;;;;;4993227;28;20418;-71
2021/12/06 11:57:22;;;;;;;14.73;11.47;;;6.40;99.90;;;;;;4990673;28;20419;-70
2021/12/06 12:00:10;;;;;;;17.50;12.57;;;6.50;99.90;;;;;;4992429;28;20795;-71
2021/12/06 12:02:46;;;;;;;14.90;11.80;;;6.50;99.90;;;;;;4990488;28;20428;-71
2021/12/06 12:05:17;;;;;;;14.80;12.20;;;6.60;99.90;;;;;;4993403;28;20419;-71
2021/12/06 12:08:01;;;;;;;13.93;11.30;;;6.60;99.90;;;;;;4991760;28;20423;-70
2021/12/06 12:10:27;;;;;;;14.83;10.87;;;6.60;99.90;;;;;;4995984;28;20461;-70
2021/12/06 12:12:54;;;;;;;14.50;9.97;;;6.70;99.90;;;;;;4996378;28;20491;-71
2021/12/06 12:15:19;;;;;;;15.40;11.50;;;6.70;99.90;;;;;;5005345;28;20446;-69
2021/12/06 12:17:46;;;;;;;13.90;11.00;;;6.80;99.90;;;;;;4998968;28;20459;-70
2021/12/06 12:20:11;;;;;;;13.70;10.40;;;6.70;99.90;;;;;;4995743;28;20455;-70
2021/12/06 12:22:39;;;;;;;16.70;12.07;;;6.70;99.90;;;;;;4996268;28;20928;-70
2021/12/06 12:25:10;;;;;;;18.30;12.83;;;6.70;99.90;;;;;;4995907;28;20268;-70
2021/12/06 12:27:51;;;;;;;16.50;12.30;;;6.70;99.90;;;;;;4995142;28;20428;-70
2021/12/06 12:30:17;;;;;;;15.80;12.20;;;6.80;99.90;;;;;;5020540;23;20933;-71
2021/12/06 12:32:43;;;;;;;14.93;12.20;;;6.80;99.90;;;;;;5002453;28;20561;-70
2021/12/06 12:35:13;;;;;;;17.07;10.40;;;6.90;99.90;;;;;;5036875;28;20209;-72
2021/12/06 12:37:41;;;;;;;15.13;11.10;;;6.90;99.90;;;;;;5019285;28;20217;-70
2021/12/06 12:40:14;;;;;;;16.17;12.27;;;6.90;99.90;;;;;;5011113;28;20503;-71
2021/12/06 12:43:02;;;;;;;17.30;13.37;;;6.70;99.90;;;;;;5012874;28;20974;-70
2021/12/06 12:45:36;;;;;;;14.87;11.90;;;6.70;99.90;;;;;;5014534;28;20578;-70
2021/12/06 12:48:02;;;;;;;14.20;10.07;;;6.80;99.90;;;;;;5014396;28;20449;-70
2021/12/06 12:50:30;;;;;;;16.10;11.80;;;6.80;99.90;;;;;;5013414;28;20507;-70
2021/12/06 12:53:04;;;;;;;15.13;10.10;;;6.80;99.90;;;;;;4975472;28;20209;-69
2021/12/06 12:55:34;;;;;;;11.03;9.93;;;6.80;99.90;;;;;;4975775;28;20538;-70
2021/12/06 12:58:21;;;;;;;12.33;8.40;;;6.80;99.90;;;;;;4976260;28;20431;-69
2021/12/06 13:01:01;;;;;;;10.60;8.60;;;6.70;99.90;;;;;;4977658;28;20503;-70
2021/12/06 13:03:49;;;;;;;9.53;8.00;;;6.60;99.90;;;;;;4976491;28;20431;-71
2021/12/06 13:06:20;;;;;;;10.67;8.77;;;6.50;99.90;;;;;;4975149;28;20419;-70
2021/12/06 13:08:48;;;;;;;9.70;7.43;;;6.60;99.90;;;;;;4976320;28;20404;-69
2021/12/06 13:11:14;;;;;;;11.33;8.90;;;6.60;99.90;;;;;;4977313;28;20828;-70
2021/12/06 13:13:46;;;;;;;12.20;9.60;;;6.60;99.90;;;;;;4976415;28;20409;-71